Time;durP1;ratioP1;P1;durP2;ratioP2;P2;SDS_P1;SDS_P2;PMS_P1;PMS_P2;Temp;Humidity;BMP_temperature;BMP_pressure;BME280_temperature;BME280_humidity;BME280_pressure;Samples;Min_cycle;Max_cycle;Signal;HPM_P1;HPM_P2
2024/01/20 00:02:26;;;;;;;4.25;1.80;;;6.10;54.30;;;;;;6246719;28;20458;-71
2024/01/20 00:05:27;;;;;;;8.50;2.67;;;6.20;54.40;;;;;;6248096;28;20032;-72
2024/01/20 00:08:28;;;;;;;5.68;2.58;;;6.20;54.30;;;;;;6247402;28;20055;-71
2024/01/20 00:11:29;;;;;;;5.40;3.00;;;6.20;54.30;;;;;;6245391;28;20102;-71
2024/01/20 00:14:38;;;;;;;9.70;3.08;;;6.20;54.30;;;;;;6247156;28;20090;-71
2024/01/20 00:17:40;;;;;;;7.45;3.13;;;6.20;54.40;;;;;;6251158;28;20040;-72
2024/01/20 00:20:42;;;;;;;5.93;2.35;;;6.10;54.50;;;;;;6245523;28;20426;-73
2024/01/20 00:23:42;;;;;;;3.47;2.05;;;6.10;54.60;;;;;;6249888;28;20021;-72
2024/01/20 00:26:43;;;;;;;3.03;1.80;;;6.10;54.50;;;;;;6245555;28;20025;-72
2024/01/20 00:29:44;;;;;;;5.82;2.85;;;6.00;54.50;;;;;;6242577;28;20113;-72
2024/01/20 00:32:45;;;;;;;3.97;1.65;;;6.00;54.50;;;;;;6249567;28;20029;-73
2024/01/20 00:35:47;;;;;;;3.95;2.00;;;6.10;54.50;;;;;;6236096;28;20485;-69
2024/01/20 00:38:48;;;;;;;2.97;2.13;;;6.00;54.40;;;;;;6246802;28;20146;-73
2024/01/20 00:41:49;;;;;;;2.83;1.98;;;6.00;54.40;;;;;;6237456;28;20033;-72
2024/01/20 00:44:50;;;;;;;6.38;1.92;;;6.00;54.40;;;;;;6248620;28;20365;-72
2024/01/20 00:47:51;;;;;;;4.20;2.15;;;6.00;54.40;;;;;;6240224;28;20508;-73
2024/01/20 00:50:52;;;;;;;8.38;2.60;;;6.10;54.40;;;;;;6232387;28;20112;-72
2024/01/20 00:53:53;;;;;;;4.35;2.13;;;6.10;54.40;;;;;;6261442;28;20049;-72
2024/01/20 00:56:54;;;;;;;3.28;2.58;;;6.20;54.40;;;;;;6247497;28;20477;-72
2024/01/20 00:59:56;;;;;;;4.78;2.40;;;6.20;54.30;;;;;;6244031;28;20406;-71
2024/01/20 01:02:57;;;;;;;4.43;2.05;;;6.30;54.30;;;;;;6246926;28;20106;-74
2024/01/20 01:05:57;;;;;;;1.95;1.48;;;6.30;54.20;;;;;;6267100;28;20021;-73
2024/01/20 01:08:58;;;;;;;5.28;2.53;;;6.40;53.90;;;;;;6245870;28;20055;-72
2024/01/20 01:11:59;;;;;;;2.85;1.77;;;6.40;53.50;;;;;;6244231;28;20033;-72
2024/01/20 01:15:01;;;;;;;4.10;2.17;;;6.50;52.90;;;;;;6246732;28;20085;-72
2024/01/20 01:18:02;;;;;;;2.95;2.40;;;6.50;52.50;;;;;;6246174;28;20029;-71
2024/01/20 01:21:04;;;;;;;5.78;2.50;;;6.50;52.60;;;;;;6243178;28;20388;-72
2024/01/20 01:24:06;;;;;;;3.58;2.13;;;6.50;52.50;;;;;;6243430;28;20242;-72
2024/01/20 01:27:07;;;;;;;8.23;2.55;;;6.50;52.40;;;;;;6242507;28;20030;-69
2024/01/20 01:30:09;;;;;;;4.30;2.42;;;6.60;52.30;;;;;;6239687;28;20045;-71
2024/01/20 01:33:10;;;;;;;2.83;2.13;;;6.60;52.10;;;;;;6252515;28;20094;-71
2024/01/20 01:36:10;;;;;;;5.30;2.90;;;6.60;51.90;;;;;;6258770;28;20404;-71
2024/01/20 01:39:12;;;;;;;4.72;2.40;;;6.60;51.90;;;;;;6240679;28;20025;-71
2024/01/20 01:42:12;;;;;;;3.60;2.33;;;6.50;51.70;;;;;;6244990;28;20067;-73
2024/01/20 01:45:13;;;;;;;3.90;2.72;;;6.50;51.60;;;;;;6244629;28;20020;-72
2024/01/20 01:48:15;;;;;;;3.95;2.83;;;6.50;51.70;;;;;;6246314;28;20029;-70
2024/01/20 01:51:16;;;;;;;2.47;1.70;;;6.50;51.70;;;;;;6239729;28;20474;-71
2024/01/20 01:54:19;;;;;;;4.18;2.58;;;6.50;51.80;;;;;;6242848;28;20028;-71
2024/01/20 01:57:23;;;;;;;2.53;1.92;;;6.50;51.90;;;;;;6272045;28;20063;-71
2024/01/20 02:00:24;;;;;;;3.95;1.80;;;6.50;51.70;;;;;;6241931;28;20044;-70
2024/01/20 02:03:26;;;;;;;4.18;1.42;;;6.50;51.50;;;;;;6246734;28;20024;-72
2024/01/20 02:06:27;;;;;;;2.75;2.20;;;6.50;51.20;;;;;;6245940;28;20051;-72
2024/01/20 02:09:29;;;;;;;8.65;2.58;;;6.50;51.30;;;;;;6238137;28;20018;-72
2024/01/20 02:12:30;;;;;;;3.55;2.65;;;6.40;51.30;;;;;;6255576;28;20021;-71
2024/01/20 02:15:33;;;;;;;2.88;2.25;;;6.40;51.50;;;;;;6242136;28;20024;-71
2024/01/20 02:18:33;;;;;;;2.28;1.58;;;6.40;51.30;;;;;;6245936;28;20064;-68
2024/01/20 02:21:36;;;;;;;2.88;2.10;;;6.40;51.40;;;;;;6244881;28;20068;-73
2024/01/20 02:24:39;;;;;;;18.58;3.55;;;6.40;51.50;;;;;;6258059;28;20017;-72
2024/01/20 02:27:39;;;;;;;2.85;2.10;;;6.40;51.20;;;;;;6257824;28;20037;-72
2024/01/20 02:30:41;;;;;;;4.00;2.05;;;6.40;51.20;;;;;;6241176;28;20087;-71
2024/01/20 02:33:42;;;;;;;2.80;2.20;;;6.40;51.20;;;;;;6274005;28;20580;-72
2024/01/20 02:36:43;;;;;;;7.38;3.13;;;6.40;51.20;;;;;;6237610;28;20024;-72
2024/01/20 02:39:44;;;;;;;4.25;3.00;;;6.40;51.20;;;;;;6244223;28;20032;-74
2024/01/20 02:42:45;;;;;;;4.38;2.35;;;6.40;51.30;;;;;;6245710;28;20025;-72
2024/01/20 02:45:46;;;;;;;3.30;2.53;;;6.40;51.30;;;;;;6241085;28;20025;-71
2024/01/20 02:48:47;;;;;;;5.20;2.08;;;6.40;51.20;;;;;;6247103;28;20560;-72
2024/01/20 02:51:48;;;;;;;5.60;2.95;;;6.40;51.20;;;;;;6243390;28;20047;-72
2024/01/20 02:54:49;;;;;;;3.17;2.15;;;6.30;51.10;;;;;;6247403;28;20043;-72
2024/01/20 02:57:50;;;;;;;6.63;2.10;;;6.30;51.20;;;;;;6246918;28;20098;-73
2024/01/20 03:00:50;;;;;;;3.22;2.17;;;6.30;51.50;;;;;;6247477;28;20465;-72
2024/01/20 03:03:51;;;;;;;4.00;2.63;;;6.40;51.70;;;;;;6241402;28;20126;-71
2024/01/20 03:06:53;;;;;;;7.85;2.78;;;6.40;51.70;;;;;;6244922;28;20079;-71
2024/01/20 03:09:55;;;;;;;7.82;2.95;;;6.40;51.70;;;;;;6232513;28;20013;-72
2024/01/20 03:12:55;;;;;;;3.75;2.28;;;6.50;51.80;;;;;;6240680;28;20025;-71
2024/01/20 03:15:56;;;;;;;4.28;2.55;;;6.50;51.70;;;;;;6240364;28;20095;-72
2024/01/20 03:18:59;;;;;;;2.00;1.80;;;6.50;51.70;;;;;;6245148;28;20556;-72
2024/01/20 03:21:59;;;;;;;5.50;2.88;;;6.40;51.60;;;;;;6242303;28;20033;-72
2024/01/20 03:25:00;;;;;;;4.55;2.72;;;6.50;51.80;;;;;;6244003;28;20029;-72
2024/01/20 03:28:02;;;;;;;4.07;2.28;;;6.50;51.90;;;;;;6243878;28;20028;-71
2024/01/20 03:31:03;;;;;;;2.90;1.95;;;6.50;51.80;;;;;;6240992;28;20048;-70
2024/01/20 03:34:04;;;;;;;5.90;3.22;;;6.50;51.70;;;;;;6240949;28;20024;-73
2024/01/20 03:37:05;;;;;;;5.53;2.63;;;6.50;51.70;;;;;;6256359;28;20046;-70
2024/01/20 03:40:07;;;;;;;8.32;3.65;;;6.50;51.70;;;;;;6250679;28;20025;-71
2024/01/20 03:43:07;;;;;;;5.18;2.90;;;6.40;51.70;;;;;;6247467;28;20032;-72
2024/01/20 03:46:08;;;;;;;4.60;3.05;;;6.40;51.80;;;;;;6243838;28;20071;-72
2024/01/20 03:49:09;;;;;;;7.05;2.97;;;6.30;51.80;;;;;;6263260;28;20040;-71
2024/01/20 03:52:10;;;;;;;7.07;2.50;;;6.30;52.00;;;;;;6248020;28;20027;-71
2024/01/20 03:55:12;;;;;;;7.40;3.22;;;6.40;52.00;;;;;;6244999;28;20060;-70
2024/01/20 03:58:12;;;;;;;4.35;2.63;;;6.40;52.00;;;;;;6245372;28;20123;-71
2024/01/20 04:01:13;;;;;;;8.00;3.70;;;6.30;52.00;;;;;;6246044;28;20029;-71
2024/01/20 04:04:15;;;;;;;9.00;3.00;;;6.40;52.10;;;;;;6249200;28;20021;-72
2024/01/20 04:07:16;;;;;;;3.83;2.28;;;6.40;52.20;;;;;;6236495;28;20021;-72
2024/01/20 04:10:17;;;;;;;5.55;2.78;;;6.40;52.30;;;;;;6251801;28;20799;-71
2024/01/20 04:13:18;;;;;;;2.85;2.33;;;6.40;52.20;;;;;;6245543;28;20452;-71
2024/01/20 04:16:19;;;;;;;4.47;2.90;;;6.40;52.30;;;;;;6261069;28;20575;-71
2024/01/20 04:19:19;;;;;;;5.72;2.47;;;6.40;52.30;;;;;;6247543;28;20033;-71
2024/01/20 04:22:21;;;;;;;7.18;3.05;;;6.40;52.40;;;;;;6251070;28;20040;-71
2024/01/20 04:25:22;;;;;;;3.20;2.20;;;6.40;52.30;;;;;;6243303;28;20084;-71
2024/01/20 04:28:23;;;;;;;6.80;2.72;;;6.40;52.30;;;;;;6247899;28;20342;-72
2024/01/20 04:31:24;;;;;;;5.30;2.83;;;6.40;52.40;;;;;;6248189;28;20082;-71
2024/01/20 04:34:25;;;;;;;4.25;2.65;;;6.40;52.30;;;;;;6243155;28;20040;-72
2024/01/20 04:37:26;;;;;;;4.80;2.22;;;6.30;52.40;;;;;;6243563;28;20120;-70
2024/01/20 04:40:27;;;;;;;3.95;2.58;;;6.30;52.40;;;;;;6247154;28;20017;-71
2024/01/20 04:43:28;;;;;;;5.43;2.92;;;6.30;52.50;;;;;;6250751;28;20037;-71
2024/01/20 04:46:30;;;;;;;4.35;2.75;;;6.30;52.60;;;;;;6275094;28;20070;-70
2024/01/20 04:49:31;;;;;;;5.28;3.05;;;6.30;52.70;;;;;;6241323;28;20096;-71
2024/01/20 04:52:32;;;;;;;4.05;2.38;;;6.30;52.60;;;;;;6257410;28;20100;-71
2024/01/20 04:55:33;;;;;;;4.20;2.55;;;6.30;52.60;;;;;;6251218;28;20032;-70
2024/01/20 04:58:34;;;;;;;3.42;2.55;;;6.30;52.40;;;;;;6234729;28;20039;-71
2024/01/20 05:01:36;;;;;;;4.07;2.67;;;6.30;52.40;;;;;;6247133;28;20017;-72
2024/01/20 05:04:36;;;;;;;4.00;2.88;;;6.30;52.40;;;;;;6276763;28;20033;-72
2024/01/20 05:07:37;;;;;;;4.10;2.10;;;6.20;52.60;;;;;;6262210;28;20291;-71
2024/01/20 05:10:38;;;;;;;5.88;2.65;;;6.20;52.80;;;;;;6249139;28;20127;-70
2024/01/20 05:13:39;;;;;;;6.13;2.83;;;6.20;52.80;;;;;;6230486;28;20837;-71
2024/01/20 05:16:40;;;;;;;5.07;2.42;;;6.30;52.80;;;;;;6246636;28;20118;-72
2024/01/20 05:19:40;;;;;;;5.18;2.80;;;6.30;52.80;;;;;;6242214;28;20400;-72
2024/01/20 05:22:42;;;;;;;5.88;2.58;;;6.30;52.90;;;;;;6239500;28;20020;-72
2024/01/20 05:25:43;;;;;;;3.70;2.63;;;6.30;53.00;;;;;;6243428;28;20028;-71
2024/01/20 05:28:43;;;;;;;5.15;3.00;;;6.30;52.90;;;;;;6262715;28;20430;-71
2024/01/20 05:31:44;;;;;;;6.53;3.83;;;6.30;52.70;;;;;;6250733;28;20028;-72
2024/01/20 05:34:46;;;;;;;4.40;2.50;;;6.30;52.70;;;;;;6246953;28;20166;-72
2024/01/20 05:37:47;;;;;;;5.10;2.53;;;6.30;52.70;;;;;;6244197;28;20032;-71
2024/01/20 05:40:48;;;;;;;5.32;2.83;;;6.30;52.70;;;;;;6243024;28;20045;-72
2024/01/20 05:43:49;;;;;;;4.75;3.42;;;6.20;52.60;;;;;;6236468;28;20021;-72
2024/01/20 05:46:50;;;;;;;7.03;3.13;;;6.20;52.80;;;;;;6225077;28;20074;-71
2024/01/20 05:49:51;;;;;;;5.13;2.97;;;6.20;52.80;;;;;;6242331;28;20113;-71
2024/01/20 05:52:52;;;;;;;7.10;3.38;;;6.20;52.80;;;;;;6244638;28;20476;-72
2024/01/20 05:55:53;;;;;;;3.47;2.80;;;6.20;52.90;;;;;;6241998;28;20025;-71
2024/01/20 05:58:53;;;;;;;11.45;3.42;;;6.20;52.90;;;;;;6243596;28;20643;-71
2024/01/20 06:01:54;;;;;;;6.45;3.60;;;6.20;52.80;;;;;;6237064;28;20029;-71
2024/01/20 06:04:55;;;;;;;5.85;3.00;;;6.20;52.80;;;;;;6246165;28;20397;-72
2024/01/20 06:07:56;;;;;;;5.95;3.20;;;6.20;52.70;;;;;;6240587;28;20025;-72
2024/01/20 06:10:57;;;;;;;5.28;3.03;;;6.20;52.70;;;;;;6244444;28;20095;-71
2024/01/20 06:13:58;;;;;;;2.75;1.95;;;6.20;52.80;;;;;;6247255;28;20040;-72
2024/01/20 06:16:59;;;;;;;3.03;2.13;;;6.20;52.80;;;;;;6243952;28;20029;-71
2024/01/20 06:20:00;;;;;;;4.35;2.70;;;6.10;52.40;;;;;;6244015;28;20063;-71
2024/01/20 06:23:01;;;;;;;4.50;2.85;;;6.10;52.30;;;;;;6240455;28;20104;-71
2024/01/20 06:26:03;;;;;;;3.22;2.42;;;6.10;52.30;;;;;;6232675;28;20052;-72
2024/01/20 06:29:03;;;;;;;7.78;2.97;;;6.10;52.40;;;;;;6243107;28;20110;-72
2024/01/20 06:32:05;;;;;;;10.95;2.70;;;6.10;52.50;;;;;;6247075;28;20017;-72
2024/01/20 06:35:07;;;;;;;5.65;2.55;;;6.10;52.50;;;;;;6240737;28;20037;-72
2024/01/20 06:38:08;;;;;;;7.13;2.90;;;6.10;52.40;;;;;;6241390;28;20122;-71
2024/01/20 06:41:08;;;;;;;7.03;3.30;;;6.10;52.30;;;;;;6241666;28;20021;-71
2024/01/20 06:44:09;;;;;;;3.42;2.53;;;6.10;52.20;;;;;;6238706;28;20067;-72
2024/01/20 06:47:11;;;;;;;5.53;3.25;;;6.10;52.30;;;;;;6245897;28;20461;-71
2024/01/20 06:50:13;;;;;;;7.07;3.55;;;6.10;52.30;;;;;;6243114;28;20021;-71
2024/01/20 06:53:13;;;;;;;5.45;3.08;;;6.10;52.30;;;;;;6245278;28;20060;-72
2024/01/20 06:56:14;;;;;;;5.60;3.28;;;6.20;52.20;;;;;;6238494;28;20021;-72
2024/01/20 06:59:17;;;;;;;3.42;2.40;;;6.20;52.10;;;;;;6237386;28;20045;-70
2024/01/20 07:02:17;;;;;;;20.48;3.17;;;6.20;52.00;;;;;;6244186;28;20017;-71
2024/01/20 07:05:18;;;;;;;5.13;3.22;;;6.20;51.90;;;;;;6242463;28;20675;-73
2024/01/20 07:08:19;;;;;;;6.53;3.08;;;6.20;52.00;;;;;;6239940;28;20444;-72
2024/01/20 07:11:20;;;;;;;3.47;2.22;;;6.20;51.90;;;;;;6247452;28;20028;-71
2024/01/20 07:14:23;;;;;;;8.45;4.13;;;6.20;51.90;;;;;;6265607;28;20068;-71
2024/01/20 07:17:24;;;;;;;5.10;2.67;;;6.20;51.90;;;;;;6260266;28;20061;-72
2024/01/20 07:20:25;;;;;;;5.15;1.98;;;6.20;51.80;;;;;;6276752;28;20049;-71
2024/01/20 07:23:26;;;;;;;11.25;3.38;;;6.10;51.70;;;;;;6229730;28;20052;-71
2024/01/20 07:26:27;;;;;;;7.95;3.35;;;6.10;51.70;;;;;;6242746;28;20488;-72
2024/01/20 07:29:28;;;;;;;9.38;2.97;;;6.10;51.80;;;;;;6251190;28;20441;-72
2024/01/20 07:32:29;;;;;;;5.28;2.72;;;6.00;51.70;;;;;;6248191;28;20050;-72
2024/01/20 07:35:30;;;;;;;5.28;3.03;;;6.00;51.80;;;;;;6260188;28;20036;-71
2024/01/20 07:38:31;;;;;;;7.38;2.65;;;6.00;52.00;;;;;;6245424;28;20040;-72
2024/01/20 07:41:31;;;;;;;7.70;2.47;;;6.10;52.00;;;;;;6241915;28;20041;-72
2024/01/20 07:44:32;;;;;;;22.10;3.35;;;6.10;51.90;;;;;;6264231;28;20357;-71
2024/01/20 07:47:33;;;;;;;5.43;2.65;;;6.10;52.00;;;;;;6247532;28;20017;-72
2024/01/20 07:50:34;;;;;;;5.28;2.88;;;6.10;51.90;;;;;;6245817;28;20029;-70
2024/01/20 07:53:35;;;;;;;4.63;3.05;;;6.10;51.80;;;;;;6244632;28;20525;-72
2024/01/20 07:56:36;;;;;;;11.32;3.33;;;6.10;51.80;;;;;;6246638;28;20024;-72
2024/01/20 07:59:37;;;;;;;4.25;3.00;;;6.10;51.80;;;;;;6251394;28;20029;-73
2024/01/20 08:02:39;;;;;;;7.60;2.92;;;6.00;51.70;;;;;;6248787;28;20489;-71
2024/01/20 08:05:40;;;;;;;10.32;3.75;;;6.10;51.90;;;;;;6242213;28;20426;-72
2024/01/20 08:08:42;;;;;;;4.43;2.80;;;6.10;51.90;;;;;;6225769;28;20112;-72
2024/01/20 08:11:43;;;;;;;5.25;2.78;;;6.20;52.00;;;;;;6247589;28;20040;-70
2024/01/20 08:14:44;;;;;;;5.03;3.08;;;6.20;51.90;;;;;;6242112;28;20021;-72
2024/01/20 08:17:44;;;;;;;6.05;3.63;;;6.20;51.70;;;;;;6241835;28;20031;-70
2024/01/20 08:20:45;;;;;;;7.97;3.60;;;6.30;51.70;;;;;;6243911;28;20022;-71
2024/01/20 08:23:46;;;;;;;5.40;3.13;;;6.20;51.70;;;;;;6250127;28;20025;-71
2024/01/20 08:26:47;;;;;;;7.78;3.83;;;6.30;51.70;;;;;;6241112;28;20013;-70
2024/01/20 08:29:48;;;;;;;3.95;2.55;;;6.20;51.70;;;;;;6240241;28;20021;-71
2024/01/20 08:32:49;;;;;;;10.98;5.25;;;6.20;51.70;;;;;;6267295;28;20404;-71
2024/01/20 08:35:50;;;;;;;5.40;2.78;;;6.20;51.70;;;;;;6247044;28;20036;-71
2024/01/20 08:38:51;;;;;;;4.53;3.10;;;6.30;51.90;;;;;;6242566;28;20033;-71
2024/01/20 08:41:52;;;;;;;4.50;3.15;;;6.30;51.70;;;;;;6227919;28;20156;-71
2024/01/20 08:44:53;;;;;;;6.15;3.13;;;6.30;51.80;;;;;;6231486;28;20062;-71
2024/01/20 08:47:55;;;;;;;6.80;3.95;;;6.30;51.80;;;;;;6245183;28;20025;-71
2024/01/20 08:50:57;;;;;;;7.35;3.35;;;6.40;51.80;;;;;;6244035;28;20119;-71
2024/01/20 08:53:58;;;;;;;3.88;2.58;;;6.40;51.70;;;;;;6244737;28;20025;-72
2024/01/20 08:56:59;;;;;;;11.75;3.22;;;6.50;51.40;;;;;;6244433;28;20128;-71
2024/01/20 09:04:22;;;;;;;6.18;3.92;;;6.60;51.20;;;;;;6244905;28;20043;-71
2024/01/20 09:07:23;;;;;;;6.03;3.80;;;6.60;51.00;;;;;;6247496;28;20032;-71
2024/01/20 09:10:23;;;;;;;5.90;3.30;;;6.60;50.90;;;;;;6246625;28;20031;-71
2024/01/20 09:13:24;;;;;;;9.60;4.25;;;6.60;50.90;;;;;;6265339;28;20021;-71
2024/01/20 09:16:25;;;;;;;15.30;4.63;;;6.60;51.00;;;;;;6225787;28;20393;-72
2024/01/20 09:19:26;;;;;;;6.82;3.30;;;6.70;51.00;;;;;;6237918;28;20033;-73
2024/01/20 09:22:27;;;;;;;6.78;2.80;;;6.70;50.90;;;;;;6244979;28;20481;-72
2024/01/20 09:25:28;;;;;;;6.10;3.25;;;6.80;50.60;;;;;;6242119;28;20023;-72
2024/01/20 09:28:29;;;;;;;6.72;3.40;;;6.70;50.30;;;;;;6223675;28;20434;-73
2024/01/20 09:31:30;;;;;;;7.70;3.78;;;6.70;50.40;;;;;;6229121;28;20127;-72
2024/01/20 09:34:31;;;;;;;4.82;3.42;;;6.80;50.60;;;;;;6233210;28;20464;-70
2024/01/20 09:37:31;;;;;;;5.20;2.90;;;6.90;50.40;;;;;;6258342;28;20704;-72
2024/01/20 09:40:35;;;;;;;5.32;3.00;;;6.90;50.30;;;;;;6240999;28;20393;-72
2024/01/20 09:43:40;;;;;;;8.35;4.40;;;6.90;50.20;;;;;;6246710;28;20025;-72
2024/01/20 09:46:42;;;;;;;9.07;3.67;;;6.90;50.10;;;;;;6259536;28;20103;-71
2024/01/20 09:49:43;;;;;;;7.03;4.00;;;7.00;50.00;;;;;;6239122;28;20039;-72
2024/01/20 09:52:55;;;;;;;7.13;3.05;;;7.10;49.70;;;;;;6245288;28;20017;-72
2024/01/20 09:55:56;;;;;;;7.63;3.58;;;7.10;49.70;;;;;;6256157;28;20033;-71
2024/01/20 09:59:00;;;;;;;9.50;5.40;;;7.20;49.40;;;;;;6244075;28;20144;-71
2024/01/20 10:02:01;;;;;;;14.68;6.18;;;7.20;49.20;;;;;;6246557;28;20034;-72
2024/01/20 10:05:05;;;;;;;7.38;3.35;;;7.30;49.30;;;;;;6249366;28;20330;-72
2024/01/20 10:08:06;;;;;;;8.27;3.50;;;7.30;48.70;;;;;;6239791;28;20043;-71
2024/01/20 10:11:07;;;;;;;9.90;4.45;;;7.40;48.60;;;;;;6239159;28;20044;-71
2024/01/20 10:14:07;;;;;;;5.38;3.55;;;7.40;49.20;;;;;;6240596;28;20469;-71
2024/01/20 10:17:08;;;;;;;6.20;3.70;;;7.40;48.70;;;;;;6239725;28;20533;-74
2024/01/20 10:20:24;;;;;;;10.38;4.47;;;7.40;48.90;;;;;;6235839;28;20606;-73
2024/01/20 10:23:25;;;;;;;8.63;3.80;;;7.50;48.80;;;;;;6242180;28;20021;-73
2024/01/20 10:26:27;;;;;;;7.60;3.75;;;7.50;48.60;;;;;;6277588;28;20484;-72
2024/01/20 10:29:28;;;;;;;13.23;3.42;;;7.50;48.40;;;;;;6244451;28;20029;-72
2024/01/20 10:32:29;;;;;;;8.48;3.67;;;7.50;48.20;;;;;;6243280;28;20501;-71
2024/01/20 10:35:30;;;;;;;18.35;5.47;;;7.50;48.20;;;;;;6244619;28;20048;-72
2024/01/20 10:38:37;;;;;;;7.68;3.45;;;7.60;48.40;;;;;;6241107;28;20075;-72
2024/01/20 10:41:41;;;;;;;10.15;4.82;;;7.60;48.10;;;;;;6244587;28;20067;-71
2024/01/20 10:44:50;;;;;;;11.27;4.90;;;7.60;48.00;;;;;;6246626;28;20028;-72
2024/01/20 10:48:08;;;;;;;9.27;4.45;;;7.60;48.10;;;;;;6252720;28;20017;-71
2024/01/20 10:51:14;;;;;;;7.30;3.65;;;7.70;48.10;;;;;;6251374;28;20017;-72
2024/01/20 10:54:16;;;;;;;12.25;4.75;;;7.70;48.00;;;;;;6249022;28;20030;-71
2024/01/20 10:57:17;;;;;;;14.57;5.10;;;7.70;48.30;;;;;;6255463;28;20116;-72
2024/01/20 11:00:19;;;;;;;13.13;4.30;;;7.90;48.20;;;;;;6250529;28;20017;-71
2024/01/20 11:03:21;;;;;;;18.02;4.72;;;8.30;48.00;;;;;;6248539;28;20029;-72
2024/01/20 11:06:24;;;;;;;9.65;4.15;;;8.80;47.20;;;;;;6249582;28;20024;-73
2024/01/20 11:09:25;;;;;;;19.17;4.65;;;9.30;46.20;;;;;;6257554;28;20106;-73
2024/01/20 11:12:27;;;;;;;6.30;3.38;;;9.70;45.00;;;;;;6248661;28;20035;-72
2024/01/20 11:15:30;;;;;;;11.57;4.97;;;10.10;44.40;;;;;;6268310;28;20086;-72
2024/01/20 11:18:40;;;;;;;12.93;4.75;;;10.60;43.90;;;;;;6245478;28;20453;-72
2024/01/20 11:21:41;;;;;;;12.20;4.53;;;11.20;42.80;;;;;;6246785;28;20025;-72
2024/01/20 11:24:42;;;;;;;11.90;5.28;;;11.90;40.80;;;;;;6248165;28;20064;-72
2024/01/20 11:27:46;;;;;;;9.98;4.05;;;12.40;39.70;;;;;;6244760;28;20021;-73
2024/01/20 11:30:47;;;;;;;7.30;4.78;;;12.90;38.50;;;;;;6250514;28;20052;-73
2024/01/20 11:33:48;;;;;;;13.23;5.00;;;13.30;37.80;;;;;;6245020;28;20036;-72
2024/01/20 11:36:49;;;;;;;8.20;5.13;;;13.70;37.30;;;;;;6246695;28;20082;-73
2024/01/20 11:39:50;;;;;;;8.07;4.07;;;14.20;36.60;;;;;;6244781;28;20076;-71
2024/01/20 11:42:51;;;;;;;14.48;7.13;;;14.80;35.50;;;;;;6249068;28;20446;-71
2024/01/20 11:45:52;;;;;;;19.92;7.03;;;15.20;34.10;;;;;;6275625;28;20035;-71
2024/01/20 11:48:54;;;;;;;11.35;5.65;;;15.20;33.30;;;;;;6234332;28;20030;-71
2024/01/20 11:51:55;;;;;;;8.80;4.55;;;15.30;33.10;;;;;;6243670;28;20029;-72
2024/01/20 11:54:58;;;;;;;9.43;4.85;;;15.50;33.00;;;;;;6246386;28;20036;-72
2024/01/20 11:57:59;;;;;;;7.72;4.50;;;15.70;32.60;;;;;;6245197;28;20119;-73
2024/01/20 12:01:02;;;;;;;10.80;5.18;;;16.00;32.30;;;;;;6244095;28;20080;-72
2024/01/20 12:04:04;;;;;;;8.15;4.20;;;16.10;31.50;;;;;;6245398;28;20146;-72
2024/01/20 12:07:06;;;;;;;12.77;5.75;;;15.70;31.30;;;;;;6250569;28;20089;-73
2024/01/20 12:10:08;;;;;;;11.73;5.63;;;14.70;32.20;;;;;;6247622;28;20445;-73
2024/01/20 12:13:15;;;;;;;9.05;5.05;;;13.60;33.60;;;;;;6262934;28;20029;-72
2024/01/20 12:16:16;;;;;;;13.80;4.35;;;12.70;35.20;;;;;;6282877;28;20094;-72
2024/01/20 12:19:17;;;;;;;15.00;4.88;;;11.90;36.70;;;;;;6244167;28;20037;-72
2024/01/20 12:22:18;;;;;;;9.70;4.90;;;11.40;37.80;;;;;;6243935;28;20392;-72
2024/01/20 12:25:19;;;;;;;9.15;4.20;;;11.00;38.60;;;;;;6238086;28;20388;-72
2024/01/20 12:28:21;;;;;;;9.57;4.35;;;10.60;39.00;;;;;;6246210;28;20430;-73
2024/01/20 12:31:25;;;;;;;15.27;5.57;;;10.40;39.70;;;;;;6247303;28;20412;-73
2024/01/20 12:34:26;;;;;;;8.48;4.43;;;10.30;40.10;;;;;;6247434;28;20191;-72
2024/01/20 12:37:27;;;;;;;13.77;4.30;;;10.20;40.10;;;;;;6248114;28;20041;-72
2024/01/20 12:40:29;;;;;;;6.35;3.80;;;10.10;40.40;;;;;;6243711;28;20556;-73
2024/01/20 12:43:31;;;;;;;7.75;4.22;;;10.00;40.60;;;;;;6257565;28;20021;-72
2024/01/20 12:46:32;;;;;;;10.70;4.00;;;10.00;40.80;;;;;;6243217;28;20112;-72
2024/01/20 12:49:32;;;;;;;5.95;3.63;;;10.00;40.70;;;;;;6241943;28;20085;-72
2024/01/20 12:52:34;;;;;;;5.28;3.33;;;10.00;40.70;;;;;;6277742;28;20048;-73
2024/01/20 12:55:35;;;;;;;6.82;3.30;;;10.00;40.90;;;;;;6241583;28;20411;-71
2024/01/20 12:58:36;;;;;;;6.85;3.53;;;9.90;41.60;;;;;;6242966;28;20541;-71
2024/01/20 13:01:37;;;;;;;11.45;6.50;;;9.90;41.10;;;;;;6247638;28;20017;-73
2024/01/20 13:04:39;;;;;;;7.13;3.60;;;10.00;41.00;;;;;;6259762;28;20461;-71
2024/01/20 13:07:40;;;;;;;6.65;3.50;;;9.90;41.10;;;;;;6244146;28;20108;-72
2024/01/20 13:10:48;;;;;;;5.47;3.35;;;9.90;41.30;;;;;;6254738;28;20032;-72
2024/01/20 13:13:49;;;;;;;6.97;3.45;;;9.90;41.50;;;;;;6260325;28;20133;-73
2024/01/20 13:16:50;;;;;;;8.68;4.18;;;10.00;41.40;;;;;;6244664;28;20056;-73
2024/01/20 13:19:51;;;;;;;7.30;3.55;;;10.00;41.40;;;;;;6245692;28;20041;-72
2024/01/20 13:22:53;;;;;;;4.28;2.67;;;9.90;41.40;;;;;;6241529;28;20021;-73
2024/01/20 13:25:56;;;;;;;12.95;4.38;;;9.80;41.50;;;;;;6240745;28;20055;-72
2024/01/20 13:28:58;;;;;;;8.65;4.25;;;9.70;41.80;;;;;;6243444;28;20031;-72
2024/01/20 13:31:59;;;;;;;9.90;4.10;;;9.70;41.90;;;;;;6237281;28;20026;-72
2024/01/20 13:35:00;;;;;;;5.07;2.97;;;9.60;41.80;;;;;;6244001;28;20059;-73
2024/01/20 13:38:01;;;;;;;7.88;4.28;;;9.50;42.00;;;;;;6229647;28;20036;-73
2024/01/20 13:41:05;;;;;;;6.25;3.03;;;9.40;42.20;;;;;;6244962;28;20137;-72
2024/01/20 13:44:05;;;;;;;6.72;3.80;;;9.40;42.50;;;;;;6238360;28;20014;-72
2024/01/20 13:47:06;;;;;;;9.38;4.32;;;9.40;42.50;;;;;;6247671;28;20031;-71
2024/01/20 13:50:07;;;;;;;8.85;4.28;;;9.30;42.60;;;;;;6241522;28;20044;-72
2024/01/20 13:53:10;;;;;;;6.18;3.42;;;9.30;42.70;;;;;;6241965;28;20021;-71
2024/01/20 13:56:11;;;;;;;5.50;2.95;;;9.30;42.70;;;;;;6256135;28;20088;-73
2024/01/20 13:59:12;;;;;;;12.07;3.50;;;9.30;42.70;;;;;;6244104;28;20051;-71
2024/01/20 14:02:13;;;;;;;7.65;3.40;;;9.30;42.90;;;;;;6241268;28;20013;-72
2024/01/20 14:05:14;;;;;;;4.65;2.38;;;9.20;43.00;;;;;;6241075;28;20433;-72
2024/01/20 14:08:15;;;;;;;6.53;3.65;;;9.20;42.90;;;;;;6278870;28;20039;-71
2024/01/20 14:11:15;;;;;;;6.93;3.35;;;9.20;42.90;;;;;;6240021;28;20102;-72
2024/01/20 14:14:18;;;;;;;7.72;3.75;;;9.20;43.10;;;;;;6240475;28;20062;-70
2024/01/20 14:17:18;;;;;;;6.97;3.47;;;9.20;43.10;;;;;;6241931;28;20058;-72
2024/01/20 14:20:19;;;;;;;7.97;3.08;;;9.20;42.80;;;;;;6232559;28;20099;-73
2024/01/20 14:23:22;;;;;;;6.00;3.28;;;9.10;42.80;;;;;;6240640;28;20438;-72
2024/01/20 14:26:22;;;;;;;3.97;2.35;;;9.10;43.10;;;;;;6245955;28;20032;-72
2024/01/20 14:29:24;;;;;;;9.70;4.03;;;9.00;43.00;;;;;;6238459;28;20029;-71
2024/01/20 14:32:24;;;;;;;7.47;3.60;;;9.10;43.20;;;;;;6251384;28;20029;-72
2024/01/20 14:35:25;;;;;;;9.30;3.42;;;9.10;43.30;;;;;;6243178;28;20177;-72
2024/01/20 14:38:27;;;;;;;5.38;2.63;;;9.10;43.30;;;;;;6243357;28;20033;-72
2024/01/20 14:41:27;;;;;;;8.75;4.43;;;9.00;43.50;;;;;;6242722;28;20100;-71
2024/01/20 14:44:30;;;;;;;16.58;5.78;;;9.00;43.70;;;;;;6259859;28;20100;-73
2024/01/20 14:47:31;;;;;;;8.77;4.43;;;8.90;43.70;;;;;;6225597;28;20418;-72
2024/01/20 14:50:33;;;;;;;10.82;4.25;;;8.90;43.80;;;;;;6239384;28;20025;-72
2024/01/20 14:53:34;;;;;;;5.20;2.85;;;8.80;44.00;;;;;;6240495;28;20117;-72
2024/01/20 14:56:39;;;;;;;7.60;3.80;;;8.90;44.10;;;;;;6244903;28;20060;-72
2024/01/20 14:59:40;;;;;;;14.85;4.25;;;8.90;44.30;;;;;;6244128;28;20409;-74
2024/01/20 15:02:41;;;;;;;7.90;3.60;;;8.90;44.40;;;;;;6241611;28;20082;-72
2024/01/20 15:05:43;;;;;;;6.68;2.65;;;8.90;44.50;;;;;;6241730;28;20464;-72
2024/01/20 15:08:44;;;;;;;10.63;5.07;;;8.90;44.60;;;;;;6244434;28;20056;-70
2024/01/20 15:11:45;;;;;;;9.05;3.47;;;8.90;44.60;;;;;;6257634;28;20090;-72
2024/01/20 15:14:47;;;;;;;10.88;3.45;;;8.90;44.60;;;;;;6239446;28;20033;-73
2024/01/20 15:17:48;;;;;;;6.43;3.28;;;8.90;44.60;;;;;;6244467;28;20037;-71
2024/01/20 15:20:49;;;;;;;7.20;3.88;;;8.90;44.60;;;;;;6235401;28;20064;-72
2024/01/20 15:23:50;;;;;;;6.07;2.92;;;8.90;44.40;;;;;;6240608;28;20035;-73
2024/01/20 15:26:52;;;;;;;8.27;3.45;;;8.80;44.40;;;;;;6241263;28;20494;-73
2024/01/20 15:29:53;;;;;;;12.82;4.05;;;8.80;44.30;;;;;;6241620;28;20029;-71
2024/01/20 15:32:54;;;;;;;4.85;3.20;;;8.70;44.40;;;;;;6247056;28;20104;-72
2024/01/20 15:35:54;;;;;;;5.40;2.97;;;8.70;44.50;;;;;;6231327;28;20098;-73
2024/01/20 15:38:55;;;;;;;6.95;3.05;;;8.70;44.60;;;;;;6245276;28;20096;-73
2024/01/20 15:41:56;;;;;;;5.63;3.17;;;8.70;44.70;;;;;;6258665;28;20100;-73
2024/01/20 15:45:00;;;;;;;5.85;2.78;;;8.70;44.60;;;;;;6252191;28;20127;-72
2024/01/20 15:48:01;;;;;;;7.88;3.70;;;8.70;44.80;;;;;;6247845;28;20036;-71
2024/01/20 15:51:03;;;;;;;6.88;3.20;;;8.70;45.00;;;;;;6241658;28;20021;-72
2024/01/20 15:54:03;;;;;;;7.32;3.63;;;8.60;45.00;;;;;;6244783;28;20034;-72
2024/01/20 15:57:05;;;;;;;9.30;4.28;;;8.60;45.10;;;;;;6243494;28;20025;-70
2024/01/20 16:00:06;;;;;;;7.18;3.15;;;8.60;45.20;;;;;;6249303;28;20031;-73